Time;durP1;ratioP1;P1;durP2;ratioP2;P2;SDS_P1;SDS_P2;PMS_P1;PMS_P2;Temp;Humidity;BMP_temperature;BMP_pressure;BME280_temperature;BME280_humidity;BME280_pressure;Samples;Min_cycle;Max_cycle;Signal;HPM_P1;HPM_P2
2022/10/26 00:02:19;;;;;;;13.57;6.72;;;;;;;16.36;49.37;99776.97;4992264;28;20027;-80
2022/10/26 00:04:45;;;;;;;18.40;7.07;;;;;;;16.47;49.27;99813.63;4990764;28;20533;-80
2022/10/26 00:07:10;;;;;;;15.80;6.82;;;;;;;16.56;49.03;99822.22;4990619;28;20113;-80
2022/10/26 00:09:35;;;;;;;16.23;6.47;;;;;;;15.93;49.06;99715.38;4991902;28;20109;-80
2022/10/26 00:12:02;;;;;;;19.25;6.90;;;;;;;16.38;49.42;99790.91;4990535;28;20081;-80
2022/10/26 00:14:27;;;;;;;15.98;6.50;;;;;;;16.57;49.21;99815.84;4991865;28;20030;-80
2022/10/26 00:16:53;;;;;;;14.25;5.97;;;;;;;15.04;49.21;99570.34;4991795;28;20026;-80
2022/10/26 00:19:18;;;;;;;16.42;6.07;;;;;;;16.15;49.49;99762.03;4991707;28;20058;-80
2022/10/26 00:21:43;;;;;;;16.05;7.30;;;;;;;16.06;49.35;99753.44;4991759;28;20026;-80
2022/10/26 00:24:10;;;;;;;14.50;6.63;;;;;;;15.09;49.73;99597.13;4991856;28;20023;-80
2022/10/26 00:26:36;;;;;;;16.20;6.35;;;;;;;16.41;49.62;99836.59;4991857;28;20110;-80
2022/10/26 00:29:01;;;;;;;13.85;6.57;;;;;;;15.51;49.85;99680.16;4991843;28;20053;-80
2022/10/26 00:31:27;;;;;;;16.98;6.07;;;;;;;15.62;50.00;99692.09;4991543;28;20026;-81
2022/10/26 00:33:53;;;;;;;14.35;5.95;;;;;;;16.27;49.96;99824.31;4995571;28;20030;-81
2022/10/26 00:36:19;;;;;;;15.85;6.03;;;;;;;16.13;49.80;99801.38;4995521;28;20033;-81
2022/10/26 00:38:53;;;;;;;9.65;5.55;;;;;;;16.12;49.98;99789.09;4995566;28;20394;-80
2022/10/26 00:41:22;;;;;;;20.25;7.35;;;;;;;16.35;50.10;99823.25;5010751;28;20027;-80
2022/10/26 00:43:48;;;;;;;13.77;6.53;;;;;;;15.89;50.12;99757.56;4994191;28;20031;-80
2022/10/26 00:46:36;;;;;;;13.88;6.20;;;;;;;15.99;50.29;99778.44;4994093;28;20037;-81
2022/10/26 00:49:15;;;;;;;15.52;6.82;;;;;;;15.94;50.29;99783.59;4995356;28;20073;-81
2022/10/26 00:51:49;;;;;;;18.08;7.53;;;;;;;15.51;50.21;99734.19;4995232;28;20077;-80
2022/10/26 00:54:19;;;;;;;13.55;6.05;;;;;;;16.20;50.00;99815.50;4993909;28;20061;-81
2022/10/26 00:56:48;;;;;;;16.95;6.32;;;;;;;16.20;50.08;99807.50;4995194;28;20106;-81
2022/10/26 00:59:15;;;;;;;16.60;6.70;;;;;;;15.70;50.35;99740.59;4995198;28;20034;-80
2022/10/26 01:01:44;;;;;;;14.32;6.78;;;;;;;15.89;50.50;99785.03;4993966;28;20716;-80
2022/10/26 01:04:11;;;;;;;17.05;6.65;;;;;;;15.43;50.35;99704.31;4995003;28;20121;-81
2022/10/26 01:06:37;;;;;;;9.70;5.97;;;;;;;15.86;50.52;99774.78;4994942;28;20062;-81
2022/10/26 01:09:04;;;;;;;17.25;7.03;;;;;;;14.30;50.36;99517.31;4993863;28;20026;-80
2022/10/26 01:11:29;;;;;;;14.95;6.53;;;;;;;15.32;50.20;99678.34;4995179;28;20030;-80
2022/10/26 01:13:57;;;;;;;11.75;5.43;;;;;;;15.89;50.68;99778.88;4995049;28;20057;-81
2022/10/26 01:16:50;;;;;;;12.60;6.18;;;;;;;15.84;50.15;99763.53;4995087;28;20499;-80
2022/10/26 01:19:58;;;;;;;15.20;6.28;;;;;;;16.06;50.83;99796.06;4994902;28;20027;-80
2022/10/26 01:22:44;;;;;;;14.30;6.93;;;;;;;15.36;51.01;99722.13;4994831;28;20032;-80
2022/10/26 01:25:25;;;;;;;16.35;6.82;;;;;;;15.88;50.89;99802.03;4994862;28;20041;-80
2022/10/26 01:27:52;;;;;;;12.87;6.57;;;;;;;15.25;50.67;99735.00;4994791;28;20022;-80
2022/10/26 01:30:17;;;;;;;18.98;7.28;;;;;;;15.89;50.78;99797.50;4994751;28;20034;-80
2022/10/26 01:33:12;;;;;;;18.35;6.88;;;;;;;15.87;50.90;99795.06;4994718;28;20037;-81
2022/10/26 01:35:40;;;;;;;15.52;6.45;;;;;;;15.84;51.06;99797.31;4994619;28;20022;-81
2022/10/26 01:38:13;;;;;;;14.80;6.30;;;;;;;14.94;51.14;99655.00;4994722;28;20034;-80
2022/10/26 01:40:54;;;;;;;11.57;6.38;;;;;;;15.80;51.07;99810.22;4994459;28;20030;-81
2022/10/26 01:43:21;;;;;;;17.38;7.05;;;;;;;14.68;50.98;99620.41;4993853;28;20079;-81
2022/10/26 01:45:48;;;;;;;13.40;6.38;;;;;;;15.18;51.18;99715.56;4994374;28;20117;-80
2022/10/26 01:48:19;;;;;;;14.02;6.10;;;;;;;15.28;50.78;99731.13;4994367;28;20487;-81
2022/10/26 01:50:48;;;;;;;15.90;6.07;;;;;;;15.13;50.92;99712.72;5009517;28;20411;-81
2022/10/26 01:53:15;;;;;;;16.75;6.30;;;;;;;15.38;51.13;99767.97;4994143;28;20073;-80
2022/10/26 01:55:51;;;;;;;16.85;7.20;;;;;;;15.72;51.44;99806.94;4992778;28;20194;-81
2022/10/26 01:58:25;;;;;;;12.45;6.30;;;;;;;15.72;51.43;99814.94;4994062;28;20037;-80
2022/10/26 02:01:02;;;;;;;12.40;6.07;;;;;;;15.67;51.51;99820.88;4994377;28;20037;-80
2022/10/26 02:03:52;;;;;;;12.18;5.93;;;;;;;15.43;51.17;99774.31;4994309;28;20058;-80
2022/10/26 02:06:44;;;;;;;15.18;7.18;;;;;;;15.60;51.60;99813.88;4993694;28;20053;-81
2022/10/26 02:09:34;;;;;;;20.35;6.95;;;;;;;15.61;51.38;99799.56;5009164;28;20046;-80
2022/10/26 02:12:04;;;;;;;15.13;7.35;;;;;;;15.53;51.22;99785.38;4994001;28;20104;-80
2022/10/26 02:14:43;;;;;;;17.17;6.45;;;;;;;14.75;51.23;99661.09;4993763;28;20030;-81
2022/10/26 02:17:22;;;;;;;13.18;6.65;;;;;;;15.12;51.32;99721.72;4993595;28;20495;-80
2022/10/26 02:19:59;;;;;;;18.00;6.95;;;;;;;15.59;51.11;99791.75;4993887;28;20475;-80
2022/10/26 02:22:29;;;;;;;13.45;6.65;;;;;;;15.57;51.09;99796.44;4993810;28;20022;-80
2022/10/26 02:24:58;;;;;;;16.02;6.18;;;;;;;15.30;51.38;99763.66;4993863;28;20559;-81
2022/10/26 02:27:27;;;;;;;13.32;5.50;;;;;;;15.38;51.51;99778.63;4993755;28;20026;-81
2022/10/26 02:29:54;;;;;;;19.02;6.88;;;;;;;14.96;51.47;99722.09;4992338;28;20431;-81
2022/10/26 02:32:29;;;;;;;11.85;6.20;;;;;;;15.38;51.53;99791.91;4993558;28;20030;-81
2022/10/26 02:34:57;;;;;;;18.13;6.90;;;;;;;14.86;51.48;99677.28;4992283;28;20392;-80
2022/10/26 02:37:24;;;;;;;17.20;6.63;;;;;;;15.23;51.42;99742.38;4993403;28;20054;-81
2022/10/26 02:39:51;;;;;;;15.93;7.28;;;;;;;15.57;51.48;99794.63;4992078;28;20410;-81
2022/10/26 02:42:18;;;;;;;18.80;6.80;;;;;;;14.63;51.07;99645.75;4993192;28;20101;-81
2022/10/26 02:44:56;;;;;;;12.80;6.28;;;;;;;15.39;51.02;99772.28;4993083;28;20018;-81
2022/10/26 02:47:23;;;;;;;16.63;6.72;;;;;;;14.97;51.25;99699.81;4991882;28;20025;-81
2022/10/26 02:49:49;;;;;;;22.95;7.70;;;;;;;14.81;51.75;99689.53;4993127;28;20411;-80
2022/10/26 02:52:29;;;;;;;17.30;7.43;;;;;;;15.21;51.69;99748.94;4993081;28;20053;-81
2022/10/26 02:55:10;;;;;;;18.00;8.85;;;;;;;13.96;51.91;99571.34;4992311;28;20594;-81
2022/10/26 02:57:39;;;;;;;16.02;6.40;;;;;;;15.44;52.04;99801.75;4993139;28;20026;-80
2022/10/26 03:00:10;;;;;;;17.13;7.45;;;;;;;14.97;51.67;99721.06;4992981;28;20462;-80
2022/10/26 03:02:36;;;;;;;16.92;6.72;;;;;;;15.46;52.12;99839.63;4993180;28;20022;-81
2022/10/26 03:05:20;;;;;;;16.85;7.28;;;;;;;15.47;52.24;99807.47;4992975;28;20104;-81
2022/10/26 03:07:46;;;;;;;15.45;7.40;;;;;;;15.39;52.14;99813.00;4991445;28;20458;-80
2022/10/26 03:10:11;;;;;;;20.95;9.75;;;;;;;14.75;52.08;99701.78;4991652;28;20029;-80
2022/10/26 03:12:36;;;;;;;23.50;11.30;;;;;;;14.68;52.34;99685.00;4992847;28;20587;-80
2022/10/26 03:15:03;;;;;;;22.33;10.30;;;;;;;14.89;52.54;99734.56;4991279;28;20033;-80
2022/10/26 03:17:29;;;;;;;27.67;12.02;;;;;;;14.83;52.48;99717.53;4992357;28;20049;-80
2022/10/26 03:19:55;;;;;;;28.95;12.80;;;;;;;15.05;52.63;99770.59;4991529;28;20053;-81
2022/10/26 03:22:21;;;;;;;27.30;13.32;;;;;;;13.47;52.48;99507.88;4992814;28;21103;-81
2022/10/26 03:24:46;;;;;;;28.45;15.05;;;;;;;15.45;52.47;99833.47;4992575;28;20026;-81
2022/10/26 03:27:11;;;;;;;29.40;13.55;;;;;;;15.21;52.60;99786.97;4991270;28;20080;-81
2022/10/26 03:29:37;;;;;;;31.13;14.95;;;;;;;14.90;52.47;99750.31;4993079;28;20154;-81
2022/10/26 03:32:02;;;;;;;33.10;15.35;;;;;;;15.10;52.66;99798.22;4992526;28;20065;-81
2022/10/26 03:34:28;;;;;;;35.33;15.48;;;;;;;13.31;52.53;99504.53;4992327;28;20026;-81
2022/10/26 03:36:53;;;;;;;25.67;12.68;;;;;;;14.04;52.54;99594.25;4992285;28;20054;-81
2022/10/26 03:39:18;;;;;;;33.95;14.48;;;;;;;14.58;52.47;99697.84;4992384;28;20557;-80
2022/10/26 03:41:44;;;;;;;28.35;14.00;;;;;;;15.12;52.38;99779.41;4992380;28;20026;-80
2022/10/26 03:44:09;;;;;;;24.40;14.18;;;;;;;14.89;52.67;99739.88;4992312;28;20104;-80
2022/10/26 03:46:35;;;;;;;30.90;13.98;;;;;;;15.02;52.71;99755.03;4990917;28;20494;-81
2022/10/26 03:49:00;;;;;;;25.70;13.38;;;;;;;14.35;52.49;99653.00;4991002;28;20014;-80
2022/10/26 03:51:26;;;;;;;26.60;13.07;;;;;;;15.58;52.96;99864.66;4992440;28;20033;-81
2022/10/26 03:53:52;;;;;;;25.90;12.90;;;;;;;15.58;52.66;99852.16;5007276;28;20693;-81
2022/10/26 03:56:17;;;;;;;21.75;9.60;;;;;;;15.60;52.89;99851.94;4992368;28;20030;-81
2022/10/26 03:58:43;;;;;;;25.65;11.05;;;;;;;15.48;52.44;99816.28;5007226;28;20155;-81
2022/10/26 04:01:08;;;;;;;21.13;10.02;;;;;;;15.02;52.66;99739.09;4990815;28;20041;-81
2022/10/26 04:03:33;;;;;;;21.55;8.35;;;;;;;15.19;52.34;99759.78;4992162;28;20026;-81
2022/10/26 04:06:02;;;;;;;22.52;8.10;;;;;;;15.60;52.21;99814.69;4991850;28;20033;-81
2022/10/26 04:08:28;;;;;;;20.30;7.30;;;;;;;13.98;51.70;99562.16;4991871;28;20051;-81
2022/10/26 04:10:53;;;;;;;21.35;8.38;;;;;;;16.04;51.50;99869.19;4992098;28;20018;-81
2022/10/26 04:13:19;;;;;;;29.30;9.95;;;;;;;16.09;51.37;99869.41;4992185;28;20033;-81
2022/10/26 04:15:44;;;;;;;23.00;8.13;;;;;;;15.30;51.59;99739.72;4992080;28;20030;-80
2022/10/26 04:18:12;;;;;;;23.73;8.02;;;;;;;15.60;51.64;99795.25;4992041;28;20061;-81
2022/10/26 04:20:41;;;;;;;19.20;8.13;;;;;;;16.06;51.66;99867.97;4990522;28;20098;-82
2022/10/26 04:23:09;;;;;;;23.77;9.07;;;;;;;15.65;51.73;99812.25;4991897;28;20026;-81
2022/10/26 04:25:35;;;;;;;18.98;8.77;;;;;;;15.38;51.41;99791.91;4992022;28;20053;-80
2022/10/26 04:28:02;;;;;;;21.58;8.68;;;;;;;16.03;51.64;99868.38;4990806;28;20022;-81
2022/10/26 04:30:27;;;;;;;25.80;9.57;;;;;;;15.95;51.83;99867.78;5006777;28;20101;-80
2022/10/26 04:32:53;;;;;;;22.38;8.57;;;;;;;15.60;51.57;99835.16;4990883;28;20109;-81
2022/10/26 04:35:18;;;;;;;24.08;9.02;;;;;;;15.30;51.84;99784.94;4991838;28;20026;-81
2022/10/26 04:37:43;;;;;;;19.83;8.85;;;;;;;15.41;52.11;99792.31;4991633;28;20026;-80
2022/10/26 04:40:09;;;;;;;21.25;9.07;;;;;;;15.99;52.26;99882.31;4991851;28;20583;-81
2022/10/26 04:42:42;;;;;;;22.77;9.45;;;;;;;15.98;52.56;99878.00;4991558;28;20027;-81
2022/10/26 04:45:08;;;;;;;22.50;9.10;;;;;;;15.40;52.22;99780.06;5006742;28;20454;-81
2022/10/26 04:47:33;;;;;;;23.10;9.43;;;;;;;15.27;52.36;99743.63;4991749;28;20022;-81
2022/10/26 04:49:58;;;;;;;21.50;9.13;;;;;;;14.65;52.42;99674.78;4991559;28;20431;-80
2022/10/26 04:52:24;;;;;;;24.67;8.95;;;;;;;15.60;52.64;99816.53;4991417;28;20097;-80
2022/10/26 04:54:49;;;;;;;18.88;8.93;;;;;;;16.13;52.61;99886.63;4990070;28;20495;-80
2022/10/26 04:57:15;;;;;;;21.92;9.43;;;;;;;16.15;52.61;99888.06;4989943;28;20022;-81
2022/10/26 04:59:40;;;;;;;24.55;9.32;;;;;;;15.54;52.35;99789.69;4991534;28;20033;-80
2022/10/26 05:02:05;;;;;;;22.95;8.75;;;;;;;15.92;52.53;99862.84;4995017;28;20150;-81
2022/10/26 05:04:31;;;;;;;21.55;8.60;;;;;;;15.48;52.13;99779.84;5010415;28;20033;-81
2022/10/26 05:06:56;;;;;;;20.13;8.27;;;;;;;15.61;52.17;99792.41;5008012;28;20613;-81
2022/10/26 05:09:21;;;;;;;16.38;7.70;;;;;;;16.26;52.23;99891.94;5010386;28;20022;-81
2022/10/26 05:11:47;;;;;;;19.02;8.48;;;;;;;16.09;51.98;99872.06;5009330;28;20464;-80
2022/10/26 05:14:12;;;;;;;20.13;8.68;;;;;;;15.75;51.67;99793.22;5009350;28;20511;-79
2022/10/26 05:16:37;;;;;;;21.85;9.07;;;;;;;16.37;51.87;99903.84;5010360;28;20076;-80
2022/10/26 05:19:03;;;;;;;20.63;10.18;;;;;;;16.15;51.69;99866.75;5013262;28;20546;-80
2022/10/26 05:21:29;;;;;;;23.73;11.07;;;;;;;16.59;52.01;99923.09;5014193;28;20026;-80
2022/10/26 05:23:54;;;;;;;20.63;9.30;;;;;;;16.04;51.81;99824.75;5013448;28;20037;-78
2022/10/26 05:26:21;;;;;;;27.27;11.27;;;;;;;14.94;51.79;99674.44;5013355;28;20022;-80
2022/10/26 05:28:47;;;;;;;24.67;11.13;;;;;;;15.88;52.05;99788.72;5012624;28;20076;-79
2022/10/26 05:31:12;;;;;;;22.98;10.48;;;;;;;16.69;51.55;99918.19;5012809;28;20026;-80
2022/10/26 05:33:38;;;;;;;22.80;8.68;;;;;;;16.89;51.40;99939.47;5014230;28;20097;-80
2022/10/26 05:36:04;;;;;;;15.77;8.38;;;;;;;16.04;51.51;99814.09;5012153;28;20026;-79
2022/10/26 05:38:29;;;;;;;20.20;10.05;;;;;;;16.76;51.50;99911.78;5014284;28;20029;-80
2022/10/26 05:40:55;;;;;;;27.15;11.80;;;;;;;16.62;51.56;99896.00;5014258;28;20540;-79
2022/10/26 05:43:22;;;;;;;20.75;12.10;;;;;;;16.57;51.29;99872.66;5011337;28;20018;-79
2022/10/26 05:45:52;;;;;;;26.00;11.77;;;;;;;16.24;51.51;99815.91;5013085;28;20414;-79
2022/10/26 05:48:18;;;;;;;24.95;10.32;;;;;;;16.62;51.15;99885.34;5012397;28;20018;-79
2022/10/26 05:50:44;;;;;;;19.45;10.15;;;;;;;15.92;51.29;99764.31;5007886;28;20040;-79
2022/10/26 05:53:09;;;;;;;23.00;9.77;;;;;;;17.10;51.15;99979.25;5004441;28;20028;-80
2022/10/26 05:55:35;;;;;;;23.15;9.43;;;;;;;16.37;51.25;99886.00;5011740;28;20057;-80
2022/10/26 05:58:01;;;;;;;19.50;8.30;;;;;;;16.39;51.47;99891.94;5028153;28;20402;-79
2022/10/26 06:00:28;;;;;;;15.98;7.50;;;;;;;16.35;51.06;99873.88;5012791;28;20033;-80
2022/10/26 06:03:22;;;;;;;17.08;7.93;;;;;;;17.05;51.23;99995.84;5011523;28;20171;-79
2022/10/26 06:05:54;;;;;;;14.70;7.97;;;;;;;17.05;51.29;100001.19;5012849;28;20045;-80
2022/10/26 06:08:22;;;;;;;22.60;8.00;;;;;;;16.50;51.07;99935.81;5012445;28;20050;-79
2022/10/26 06:10:48;;;;;;;14.45;7.43;;;;;;;16.33;51.17;99905.25;5012791;28;20050;-79
2022/10/26 06:13:14;;;;;;;17.35;7.40;;;;;;;15.43;50.72;99749.56;5024493;28;20036;-79
2022/10/26 06:16:01;;;;;;;19.30;7.32;;;;;;;16.76;51.13;99954.47;4994654;28;20470;-78
2022/10/26 06:18:38;;;;;;;18.73;7.43;;;;;;;17.19;50.90;100015.34;5003371;28;20033;-79
2022/10/26 06:21:25;;;;;;;24.63;8.38;;;;;;;17.23;50.73;100016.56;5012531;28;20093;-80
2022/10/26 06:23:56;;;;;;;16.17;8.02;;;;;;;17.28;50.52;100014.06;5012205;28;20025;-79
2022/10/26 06:26:50;;;;;;;21.08;9.00;;;;;;;17.17;50.43;99995.22;5011983;28;20034;-79
2022/10/26 06:29:49;;;;;;;16.65;8.25;;;;;;;17.40;50.40;100011.56;4999714;28;20128;-80
2022/10/26 06:32:15;;;;;;;20.08;7.28;;;;;;;16.87;50.24;99921.00;4992000;28;20478;-79
2022/10/26 06:34:48;;;;;;;18.27;7.15;;;;;;;16.92;50.20;99931.84;5004434;28;20525;-79
2022/10/26 06:37:13;;;;;;;15.20;8.05;;;;;;;16.98;50.28;99941.69;5012667;28;20037;-79
2022/10/26 06:39:45;;;;;;;19.40;8.23;;;;;;;17.59;50.11;100029.38;5012196;28;20021;-79
2022/10/26 06:42:11;;;;;;;19.40;9.52;;;;;;;17.42;50.10;100007.66;5026193;28;20026;-79
2022/10/26 06:44:36;;;;;;;18.50;7.93;;;;;;;17.37;49.79;99993.31;5007391;28;20049;-79
2022/10/26 06:47:06;;;;;;;17.25;8.98;;;;;;;17.71;49.92;100035.72;4996650;28;20029;-79
2022/10/26 06:49:59;;;;;;;19.83;7.53;;;;;;;17.67;50.25;100044.34;4997448;28;20014;-78
2022/10/26 06:52:39;;;;;;;16.48;6.82;;;;;;;16.95;49.91;99887.94;5010952;28;20135;-79
2022/10/26 06:55:04;;;;;;;16.23;6.88;;;;;;;17.64;49.75;100000.19;5008843;28;20072;-80
2022/10/26 06:57:36;;;;;;;16.50;6.97;;;;;;;17.86;49.96;100016.75;5003019;28;20061;-80
2022/10/26 07:00:06;;;;;;;;;;;;;;;17.89;50.32;100032.38;4992720;28;20026;-79
2022/10/26 07:02:31;;;;;;;13.60;6.30;;;;;;;17.77;49.54;99997.47;4992398;28;19916;-79
2022/10/26 07:04:57;;;;;;;15.63;6.60;;;;;;;17.68;49.36;99990.75;5003254;28;20411;-79
2022/10/26 07:07:28;;;;;;;13.77;6.20;;;;;;;17.56;49.46;99947.03;4995112;28;20055;-79
2022/10/26 07:09:54;;;;;;;16.02;6.90;;;;;;;17.69;49.44;99975.53;5003269;28;20120;-80
2022/10/26 07:12:19;;;;;;;14.45;6.90;;;;;;;17.67;49.08;99972.25;5002254;28;20134;-80
2022/10/26 07:14:44;;;;;;;16.02;6.90;;;;;;;17.80;49.17;99961.50;5001558;28;20053;-80
2022/10/26 07:17:11;;;;;;;14.15;6.70;;;;;;;17.60;49.09;99924.19;5001458;28;20078;-79
2022/10/26 07:19:36;;;;;;;13.25;6.57;;;;;;;18.46;48.98;100046.59;4998152;28;20030;-79
2022/10/26 07:22:02;;;;;;;17.98;7.40;;;;;;;17.59;48.91;99897.72;5001890;28;20077;-80
2022/10/26 07:24:28;;;;;;;13.52;7.28;;;;;;;18.16;49.05;99978.75;5010691;28;20774;-81
2022/10/26 07:26:54;;;;;;;16.15;6.85;;;;;;;18.64;49.04;100043.22;4998140;28;20037;-80
2022/10/26 07:29:24;;;;;;;13.98;6.50;;;;;;;18.71;48.83;100044.00;5003764;28;20029;-80
2022/10/26 07:31:50;;;;;;;15.63;7.28;;;;;;;17.60;48.88;99867.31;5006526;28;20560;-80
2022/10/26 07:34:16;;;;;;;13.95;6.40;;;;;;;17.89;48.81;99900.66;5000563;28;20495;-79
2022/10/26 07:36:41;;;;;;;13.73;7.25;;;;;;;18.40;48.42;99972.59;4997251;28;20113;-79
2022/10/26 07:39:07;;;;;;;11.35;5.97;;;;;;;18.37;48.47;99957.81;5001647;28;20037;-79
2022/10/26 07:41:33;;;;;;;16.13;7.55;;;;;;;18.61;48.35;99988.31;4998357;28;20041;-79
2022/10/26 07:43:58;;;;;;;13.13;6.93;;;;;;;18.70;48.41;100023.63;4997805;28;20030;-79
2022/10/26 07:46:24;;;;;;;14.80;6.47;;;;;;;18.74;48.08;100003.44;5006016;28;20030;-78
2022/10/26 07:48:50;;;;;;;14.38;6.75;;;;;;;18.73;47.99;99993.78;5001795;28;20018;-80
2022/10/26 07:51:15;;;;;;;16.85;6.53;;;;;;;18.72;47.63;99976.09;5010164;28;20034;-80
2022/10/26 07:53:41;;;;;;;19.05;6.82;;;;;;;18.94;47.53;99997.88;5011228;28;20426;-79
2022/10/26 07:56:07;;;;;;;14.27;8.10;;;;;;;18.87;47.48;100000.63;5009927;28;20025;-80
2022/10/26 07:58:33;;;;;;;17.33;8.23;;;;;;;18.76;47.27;99953.22;5009371;28;20464;-79
2022/10/26 08:01:09;;;;;;;14.20;6.53;;;;;;;19.48;46.95;100056.03;5002351;28;20040;-80
2022/10/26 08:03:34;;;;;;;13.45;6.43;;;;;;;19.07;46.76;99972.84;5005173;28;20525;-79
2022/10/26 08:06:00;;;;;;;12.52;5.53;;;;;;;19.60;46.72;100053.44;5010980;28;20026;-80
2022/10/26 08:08:26;;;;;;;16.08;6.45;;;;;;;19.68;46.42;100048.59;5001830;28;20069;-79
2022/10/26 08:10:51;;;;;;;11.00;6.55;;;;;;;19.23;46.18;99974.91;5009624;28;20045;-80
2022/10/26 08:13:17;;;;;;;14.32;7.38;;;;;;;19.00;45.93;99928.25;5018382;28;20477;-79
2022/10/26 08:15:42;;;;;;;17.40;11.25;;;;;;;19.87;45.87;100059.28;5011000;28;20095;-79
2022/10/26 08:18:08;;;;;;;16.52;6.90;;;;;;;19.26;45.47;99940.50;5011119;28;20022;-79
2022/10/26 08:20:33;;;;;;;14.98;6.80;;;;;;;19.58;45.58;99980.53;5010987;28;20026;-79
2022/10/26 08:23:00;;;;;;;11.75;6.38;;;;;;;20.05;45.12;100051.19;5011590;28;20092;-80
2022/10/26 08:25:26;;;;;;;10.52;6.30;;;;;;;20.12;44.74;100049.28;5028117;28;20064;-81
2022/10/26 08:27:53;;;;;;;8.57;5.82;;;;;;;20.15;44.65;100040.78;5018552;28;20025;-80
2022/10/26 08:30:18;;;;;;;11.05;5.22;;;;;;;19.64;44.60;99963.53;5025284;28;20080;-81
2022/10/26 08:32:43;;;;;;;12.18;6.50;;;;;;;19.84;44.03;99980.16;5007035;28;20029;-80
2022/10/26 08:35:09;;;;;;;10.02;4.82;;;;;;;20.17;43.60;100022.59;5011243;28;20030;-80
2022/10/26 08:37:34;;;;;;;14.38;5.05;;;;;;;20.13;43.79;100008.03;5012430;28;20053;-79
2022/10/26 08:40:00;;;;;;;13.02;7.28;;;;;;;20.48;43.64;100059.09;5007568;28;20101;-79
2022/10/26 08:42:37;;;;;;;12.18;6.65;;;;;;;20.58;43.11;100053.16;5011055;28;20060;-80
2022/10/26 08:45:15;;;;;;;12.38;8.45;;;;;;;19.98;43.33;99981.59;5002342;28;20503;-80
2022/10/26 08:47:48;;;;;;;8.98;6.18;;;;;;;20.30;43.13;99987.53;5010923;28;20487;-79
2022/10/26 08:50:49;;;;;;;10.35;6.70;;;;;;;20.75;41.71;100054.09;5007578;28;20045;-80
2022/10/26 08:53:22;;;;;;;7.75;3.70;;;;;;;20.66;42.30;100030.53;5003726;28;20099;-80
2022/10/26 08:56:10;;;;;;;11.75;4.47;;;;;;;20.60;42.18;100032.28;5009791;28;20018;-80
2022/10/26 08:58:42;;;;;;;6.78;3.70;;;;;;;20.20;41.63;99943.56;5006090;28;20052;-81
2022/10/26 09:01:08;;;;;;;8.65;5.32;;;;;;;19.92;41.56;99901.31;5010241;28;20022;-81
2022/10/26 09:03:34;;;;;;;9.65;4.20;;;;;;;20.55;41.65;99997.28;4997988;28;20113;-80
2022/10/26 09:06:51;;;;;;;7.07;3.50;;;;;;;20.69;41.00;100011.28;5013046;28;20030;-80
2022/10/26 09:09:45;;;;;;;11.18;4.43;;;;;;;20.89;41.58;100023.34;5012222;28;20064;-80
2022/10/26 09:12:25;;;;;;;9.18;3.63;;;;;;;21.05;41.33;100029.06;4991464;28;20039;-80
2022/10/26 09:15:21;;;;;;;10.18;5.38;;;;;;;21.27;41.20;100054.28;5007887;28;20045;-79
2022/10/26 09:18:19;;;;;;;11.35;4.88;;;;;;;20.84;41.00;99974.91;5003808;28;20577;-80
2022/10/26 09:21:03;;;;;;;7.88;3.90;;;;;;;21.41;40.78;100044.09;5007612;28;20442;-79
2022/10/26 09:23:47;;;;;;;11.80;5.82;;;;;;;21.51;40.62;100053.19;5024198;28;20466;-79
2022/10/26 09:26:18;;;;;;;19.02;5.53;;;;;;;21.17;40.54;99984.22;5024938;28;20462;-79
2022/10/26 09:28:47;;;;;;;14.32;7.22;;;;;;;21.24;40.47;99975.00;5004234;28;20025;-79
2022/10/26 09:31:15;;;;;;;10.38;6.50;;;;;;;21.76;40.20;100039.47;5011830;28;20030;-79
2022/10/26 09:33:41;;;;;;;9.82;4.28;;;;;;;21.04;40.14;99938.81;5011046;28;20030;-79
2022/10/26 09:36:11;;;;;;;6.97;3.67;;;;;;;21.37;39.86;99967.72;5018912;28;20041;-79
2022/10/26 09:38:55;;;;;;;8.57;4.13;;;;;;;21.93;39.85;100050.28;5012332;28;20116;-78
2022/10/26 09:41:39;;;;;;;7.63;4.82;;;;;;;21.96;39.71;100024.78;5007813;28;20033;-77
2022/10/26 09:44:32;;;;;;;8.27;4.93;;;;;;;22.11;39.41;100038.53;5010664;28;20438;-78
2022/10/26 09:47:32;;;;;;;6.25;3.17;;;;;;;22.00;38.59;100012.50;5010290;28;20034;-79
2022/10/26 09:50:05;;;;;;;14.20;11.93;;;;;;;22.28;39.14;100041.25;5011121;28;20038;-78
2022/10/26 09:52:31;;;;;;;19.50;10.95;;;;;;;21.44;38.82;99901.25;5025473;28;20112;-78
2022/10/26 09:54:56;;;;;;;18.08;9.05;;;;;;;22.01;38.25;99981.84;5005136;28;20125;-78
2022/10/26 09:57:22;;;;;;;9.93;5.53;;;;;;;22.11;38.24;99998.19;5004955;28;20026;-79
2022/10/26 09:59:50;;;;;;;10.38;5.60;;;;;;;22.31;38.06;99987.00;5013082;28;20690;-77
2022/10/26 10:02:33;;;;;;;11.38;5.95;;;;;;;22.68;37.79;100031.19;5012746;28;20038;-79
2022/10/26 10:04:59;;;;;;;13.15;7.22;;;;;;;21.56;37.77;99872.47;5009162;28;20030;-79
2022/10/26 10:07:24;;;;;;;9.50;5.38;;;;;;;22.07;37.45;99916.38;5011086;28;20060;-79
2022/10/26 10:10:13;;;;;;;8.25;4.95;;;;;;;22.65;37.12;99980.56;5011503;28;20029;-80
2022/10/26 10:12:38;;;;;;;6.13;3.15;;;;;;;22.68;36.95;99977.38;5011901;28;20037;-79
2022/10/26 10:15:04;;;;;;;4.85;2.65;;;;;;;22.34;36.51;99903.94;5007352;28;20038;-79
2022/10/26 10:17:30;;;;;;;7.78;3.42;;;;;;;22.76;36.65;99968.88;5002342;28;20492;-78
2022/10/26 10:20:11;;;;;;;9.60;5.20;;;;;;;22.93;36.75;100008.44;4992813;28;20046;-78
2022/10/26 10:22:55;;;;;;;10.43;9.18;;;;;;;22.82;36.66;99964.41;5012183;28;20462;-79
2022/10/26 10:25:26;;;;;;;12.82;8.13;;;;;;;22.60;36.60;99915.88;5003759;28;20034;-77
2022/10/26 10:27:53;;;;;;;10.82;5.05;;;;;;;22.71;36.29;99930.28;5000676;28;20455;-77
2022/10/26 10:30:22;;;;;;;7.25;3.42;;;;;;;21.46;36.05;99719.94;5005793;28;20034;-79
2022/10/26 10:33:03;;;;;;;10.00;7.45;;;;;;;23.04;36.19;99967.97;5001910;28;20100;-79
2022/10/26 10:35:29;;;;;;;15.95;11.38;;;;;;;23.35;36.47;100003.38;5012293;28;20074;-80
2022/10/26 10:37:54;;;;;;;14.57;9.45;;;;;;;23.08;36.22;99952.13;5011497;28;20034;-78
2022/10/26 10:40:24;;;;;;;13.07;8.50;;;;;;;22.98;36.33;99923.16;5011267;28;20026;-79
2022/10/26 10:42:52;;;;;;;7.53;4.53;;;;;;;23.05;36.06;99920.31;5006357;28;20026;-79
2022/10/26 10:45:23;;;;;;;12.90;7.35;;;;;;;23.19;35.93;99939.59;5004120;28;20550;-80
2022/10/26 10:48:19;;;;;;;28.75;25.00;;;;;;;23.20;36.04;99930.44;5001135;28;20036;-79
2022/10/26 10:51:11;;;;;;;28.50;23.90;;;;;;;23.58;36.06;99986.97;5001002;28;20038;-79
2022/10/26 10:53:55;;;;;;;24.60;21.35;;;;;;;23.62;35.72;99985.41;5007023;28;20084;-79
2022/10/26 10:56:39;;;;;;;17.52;12.13;;;;;;;23.09;36.05;99899.88;5009959;28;20523;-79
2022/10/26 10:59:38;;;;;;;9.20;6.07;;;;;;;23.64;35.29;99987.84;5009580;28;20109;-79
2022/10/26 11:02:41;;;;;;;8.32;5.57;;;;;;;23.61;35.38;99988.34;5011350;28;20034;-79
2022/10/26 11:05:36;;;;;;;8.07;4.10;;;;;;;23.62;35.64;99981.91;5010854;28;20092;-80
2022/10/26 11:08:24;;;;;;;9.38;4.38;;;;;;;23.61;35.47;99983.78;4999405;28;20065;-79
2022/10/26 11:10:59;;;;;;;6.93;4.97;;;;;;;23.25;35.38;99922.44;5010917;28;20076;-80
2022/10/26 11:13:33;;;;;;;7.60;5.30;;;;;;;23.56;34.89;99982.91;5015551;28;20022;-79
2022/10/26 11:16:03;;;;;;;7.25;4.22;;;;;;;22.15;35.21;99768.06;5004619;28;20037;-80
2022/10/26 11:18:42;;;;;;;7.18;4.03;;;;;;;22.98;35.35;99914.25;5001873;28;20068;-78
2022/10/26 11:21:25;;;;;;;5.70;3.40;;;;;;;23.43;34.76;99976.81;4996913;28;20068;-77
2022/10/26 11:24:16;;;;;;;8.02;3.70;;;;;;;23.35;35.15;99977.25;5001233;28;20066;-79
2022/10/26 11:26:52;;;;;;;8.40;5.55;;;;;;;22.89;35.54;99924.66;5027086;28;20037;-78
2022/10/26 11:29:30;;;;;;;9.45;4.07;;;;;;;23.02;35.76;99945.00;5007434;28;20024;-79
2022/10/26 11:32:13;;;;;;;11.10;3.45;;;;;;;23.22;35.76;99972.22;5010806;28;20520;-79
2022/10/26 11:34:59;;;;;;;8.43;4.00;;;;;;;23.19;35.78;99972.72;5004129;28;20018;-78
2022/10/26 11:37:36;;;;;;;6.68;3.58;;;;;;;23.14;35.64;99989.66;5009632;28;20057;-79
2022/10/26 11:40:46;;;;;;;10.63;8.88;;;;;;;22.93;35.62;99946.50;4997987;28;20466;-79
2022/10/26 11:43:23;;;;;;;14.13;11.65;;;;;;;23.05;36.08;99961.50;5010410;28;20034;-79
2022/10/26 11:46:11;;;;;;;9.45;5.80;;;;;;;22.99;36.18;99969.75;5010939;28;20513;-79